Map

Track Data

SID SEASON NUMBER BASIN SUBBASIN NAME ISO_TIME NATURE LAT LON WMO_WIND WMO_PRES WMO_AGENCY TRACK_TYPE DIST2LAND LANDFALL IFLAG USA_AGENCY USA_ATCF_ID USA_LAT USA_LON USA_RECORD USA_STATUS USA_WIND USA_PRES USA_SSHS USA_R34_NE USA_R34_SE USA_R34_SW USA_R34_NW USA_R50_NE USA_R50_SE USA_R50_SW USA_R50_NW USA_R64_NE USA_R64_SE USA_R64_SW USA_R64_NW USA_POCI USA_ROCI USA_RMW USA_EYE TOKYO_LAT TOKYO_LON TOKYO_GRADE TOKYO_WIND TOKYO_PRES TOKYO_R50_DIR TOKYO_R50_LONG TOKYO_R50_SHORT TOKYO_R30_DIR TOKYO_R30_LONG TOKYO_R30_SHORT TOKYO_LAND CMA_LAT CMA_LON CMA_CAT CMA_WIND CMA_PRES HKO_LAT HKO_LON HKO_CAT HKO_WIND HKO_PRES NEWDELHI_LAT NEWDELHI_LON NEWDELHI_GRADE NEWDELHI_WIND NEWDELHI_PRES NEWDELHI_CI NEWDELHI_DP NEWDELHI_POCI REUNION_LAT REUNION_LON REUNION_TYPE REUNION_WIND REUNION_PRES REUNION_TNUM REUNION_CI REUNION_RMW REUNION_R34_NE REUNION_R34_SE REUNION_R34_SW REUNION_R34_NW REUNION_R50_NE REUNION_R50_SE REUNION_R50_SW REUNION_R50_NW REUNION_R64_NE REUNION_R64_SE REUNION_R64_SW REUNION_R64_NW BOM_LAT BOM_LON BOM_TYPE BOM_WIND BOM_PRES BOM_TNUM BOM_CI BOM_RMW BOM_R34_NE BOM_R34_SE BOM_R34_SW BOM_R34_NW BOM_R50_NE BOM_R50_SE BOM_R50_SW BOM_R50_NW BOM_R64_NE BOM_R64_SE BOM_R64_SW BOM_R64_NW BOM_ROCI BOM_POCI BOM_EYE BOM_POS_METHOD BOM_PRES_METHOD NADI_LAT NADI_LON NADI_CAT NADI_WIND NADI_PRES WELLINGTON_LAT WELLINGTON_LON WELLINGTON_WIND WELLINGTON_PRES DS824_LAT DS824_LON DS824_STAGE DS824_WIND DS824_PRES TD9636_LAT TD9636_LON TD9636_STAGE TD9636_WIND TD9636_PRES TD9635_LAT TD9635_LON TD9635_WIND TD9635_PRES TD9635_ROCI NEUMANN_LAT NEUMANN_LON NEUMANN_CLASS NEUMANN_WIND NEUMANN_PRES MLC_LAT MLC_LON MLC_CLASS MLC_WIND MLC_PRES USA_GUST BOM_GUST BOM_GUST_PER REUNION_GUST REUNION_GUST_PER USA_SEAHGT USA_SEARAD_NE USA_SEARAD_SE USA_SEARAD_SW USA_SEARAD_NW STORM_SPEED STORM_DIR
1873223N11332 1873 12 NA NA NOT_NAMED 1873-08-10 18:00:00 TS 11.0000 -28.0000 spur-merge 1211 1211 _____________O -1 11.0000 -28.0000 TS 35 9 289
1873223N11332 1873 12 NA NA NOT_NAMED 1873-08-10 21:00:00 TS 11.1501 -28.4499 spur-merge 1244 1244 _____________P -1 11.1501 -28.4499 TS 35 9 289
1873223N11332 1873 12 NA NA NOT_NAMED 1873-08-11 00:00:00 TS 11.3000 -28.9000 spur-merge 1292 1292 _____________O -1 11.3000 -28.9000 TS 35 9 289
1873223N11332 1873 12 NA NA NOT_NAMED 1873-08-11 03:00:00 TS 11.4499 -29.3500 spur-merge 1341 1338 _____________P -1 11.4499 -29.3500 TS 35 9 289
1873223N11332 1873 12 NA NA NOT_NAMED 1873-08-11 06:00:00 TS 11.6000 -29.8000 spur-merge 1376 1376 _____________O -1 11.6000 -29.8000 TS 35 9 288
1873223N11332 1873 12 NA NA NOT_NAMED 1873-08-11 09:00:00 TS 11.7424 -30.2501 spur-merge 1426 1423 _____________P -1 11.7424 -30.2501 TS 37 9 289
1873223N11332 1873 12 NA NA NOT_NAMED 1873-08-11 12:00:00 TS 11.9000 -30.7000 spur-merge 1462 1462 _____________O -1 11.9000 -30.7000 TS 40 10 292
1873223N11332 1873 12 NA NA NOT_NAMED 1873-08-11 15:00:00 TS 12.0999 -31.1500 spur-merge 1500 1500 _____________P -1 12.0999 -31.1500 TS 42 10 294
1873223N11332 1873 12 NA NA NOT_NAMED 1873-08-11 18:00:00 TS 12.3000 -31.6000 spur-merge 1548 1548 _____________O -1 12.3000 -31.6000 TS 45 10 292
1873223N11332 1873 12 NA NA NOT_NAMED 1873-08-11 21:00:00 TS 12.4574 -32.0501 spur-merge 1597 1597 _____________P -1 12.4574 -32.0501 TS 47 9 289
1873223N11332 1873 12 NA NA NOT_NAMED 1873-08-12 00:00:00 TS 12.6000 -32.5000 spur-merge 1638 1638 _____________O -1 12.6000 -32.5000 TS 50 9 288
1873223N11332 1873 12 NA NA NOT_NAMED 1873-08-12 03:00:00 TS 12.7499 -32.9501 spur-merge 1689 1688 _____________P -1 12.7499 -32.9501 TS 52 9 289
1873223N11332 1873 12 NA NA NOT_NAMED 1873-08-12 06:00:00 TS 12.9000 -33.4000 spur-merge 1729 1729 _____________O -1 12.9000 -33.4000 TS 55 9 289
1873223N11332 1873 12 NA NA NOT_NAMED 1873-08-12 09:00:00 TS 13.0499 -33.8501 spur-merge 1781 1779 _____________P -1 13.0499 -33.8501 TS 57 9 289
1873223N11332 1873 12 NA NA NOT_NAMED 1873-08-12 12:00:00 TS 13.2000 -34.3000 spur-merge 1821 1821 _____________O -1 13.2000 -34.3000 TS 60 9 289
1873223N11332 1873 12 NA NA NOT_NAMED 1873-08-12 15:00:00 TS 13.3499 -34.7426 spur-merge 1862 1862 _____________P -1 13.3499 -34.7426 TS 60 9 289
1873223N11332 1873 12 NA NA NOT_NAMED 1873-08-12 18:00:00 TS 13.5000 -35.2000 spur-merge 1906 1900 _____________O -1 13.5000 -35.2000 TS 60 10 287
1873223N11332 1873 12 NA NA NOT_NAMED 1873-08-12 21:00:00 TS 13.6425 -35.7076 spur-merge 1903 1903 _____________P -1 13.6425 -35.7076 TS 62 10 287
1873223N11332 1873 12 NA NA NOT_NAMED 1873-08-13 00:00:00 TS 13.8000 -36.2000 spur-merge 1912 1910 _____________O -1 13.8000 -36.2000 HU 65 9 292
1873223N11332 1873 12 NA NA NOT_NAMED 1873-08-13 03:00:00 TS 13.9998 -36.6075 spur-merge 1926 1920 _____________P -1 13.9998 -36.6075 HU 65 9 297
1873223N11332 1873 12 NA NA NOT_NAMED 1873-08-13 06:00:00 TS 14.2000 -37.0000 spur-merge 1920 1891 _____________O -1 14.2000 -37.0000 HU 65 9 293
1873223N11332 1873 12 NA NA NOT_NAMED 1873-08-13 09:00:00 TS 14.3500 -37.4426 spur-merge 1891 1861 _____________P -1 14.3500 -37.4426 HU 65 9 289
1873223N11332 1873 12 NA NA NOT_NAMED 1873-08-13 12:00:00 TS 14.5000 -37.9000 spur-merge 1861 1840 _____________O -1 14.5000 -37.9000 HU 65 10 292
1873223N11332 1873 12 NA NA NOT_NAMED 1873-08-13 15:00:00 TS 14.7000 -38.3575 spur-merge 1831 1812 _____________P -1 14.7000 -38.3575 HU 67 10 295
1873223N11332 1873 12 NA NA NOT_NAMED 1873-08-13 18:00:00 TS 14.9000 -38.8000 spur-merge 1812 1786 _____________O -1 14.9000 -38.8000 HU 70 9 294
1873223N11332 1873 12 NA NA NOT_NAMED 1873-08-13 21:00:00 TS 15.0497 -39.1777 spur-merge 1786 1769 _____________P -1 15.0497 -39.1777 HU 70 8 291
1873223N11332 1873 12 NA NA NOT_NAMED 1873-08-14 00:00:00 TS 15.2000 -39.6000 spur-merge 1769 1745 _____________O -1 15.2000 -39.6000 HU 70 10 290
1873223N11332 1873 12 NA NA NOT_NAMED 1873-08-14 03:00:00 TS 15.4001 -40.1774 spur-merge 1738 1709 _____________P -1 15.4001 -40.1774 HU 70 12 289
1873223N11332 1873 12 NA NA NOT_NAMED 1873-08-14 06:00:00 TS 15.6000 -40.8000 spur-merge 1709 1681 _____________O -1 15.6000 -40.8000 HU 70 12 287
1873223N11332 1873 12 NA NA NOT_NAMED 1873-08-14 09:00:00 TS 15.7574 -41.3726 spur-merge 1682 1656 _____________P -1 15.7574 -41.3726 HU 70 11 286
1873223N11332 1873 12 NA NA NOT_NAMED 1873-08-14 12:00:00 TS 15.9000 -41.9000 spur-merge 1656 1638 _____________O -1 15.9000 -41.9000 HU 70 10 287
1873223N11332 1873 12 NA NA NOT_NAMED 1873-08-14 15:00:00 TS 16.0423 -42.3651 spur-merge 1632 1621 _____________P -1 16.0423 -42.3651 HU 72 9 289
1873223N11332 1873 12 NA NA NOT_NAMED 1873-08-14 18:00:00 TS 16.2000 -42.8000 spur-merge 1624 1615 _____________O -1 16.2000 -42.8000 HU 75 9 293
1873223N11332 1873 12 NA NA NOT_NAMED 1873-08-14 21:00:00 TS 16.4000 -43.2575 spur-merge 1612 1601 _____________P -1 16.4000 -43.2575 HU 75 10 295
1873223N11332 1873 12 NA NA NOT_NAMED 1873-08-15 00:00:00 TS 16.6000 -43.7000 spur-merge 1603 1586 _____________O -1 16.6000 -43.7000 HU 75 9 294
1873223N11332 1873 12 NA NA NOT_NAMED 1873-08-15 03:00:00 TS 16.7572 -44.0777 spur-merge 1595 1579 _____________P -1 16.7572 -44.0777 HU 75 8 291
1873223N11332 1873 12 NA NA NOT_NAMED 1873-08-15 06:00:00 TS 16.9000 -44.5000 spur-merge 1579 1559 _____________O -1 16.9000 -44.5000 HU 75 10 287
1873223N11332 1873 12 NA NA NOT_NAMED 1873-08-15 09:00:00 TS 17.0426 -45.0776 spur-merge 1553 1539 _____________P -1 17.0426 -45.0776 HU 75 12 285
1873223N11332 1873 12 NA NA NOT_NAMED 1873-08-15 12:00:00 TS 17.2000 -45.7000 spur-merge 1539 1528 _____________O -1 17.2000 -45.7000 HU 75 12 287
1873223N11332 1873 12 NA NA NOT_NAMED 1873-08-15 15:00:00 TS 17.3999 -46.2725 spur-merge 1528 1519 _____________P -1 17.3999 -46.2725 HU 75 11 291
1873223N11332 1873 12 NA NA NOT_NAMED 1873-08-15 18:00:00 TS 17.6000 -46.8000 spur-merge 1524 1516 _____________O -1 17.6000 -46.8000 HU 75 10 291
1873223N11332 1873 12 NA NA NOT_NAMED 1873-08-15 21:00:00 TS 17.7573 -47.2652 spur-merge 1522 1513 _____________P -1 17.7573 -47.2652 HU 75 9 289
1873223N11332 1873 12 NA NA NOT_NAMED 1873-08-16 00:00:00 TS 17.9000 -47.7000 spur-merge 1516 1508 _____________O -1 17.9000 -47.7000 HU 75 9 289
1873223N11332 1873 12 NA NA NOT_NAMED 1873-08-16 03:00:00 TS 18.0424 -48.1576 spur-merge 1503 1499 _____________P -1 18.0424 -48.1576 HU 75 9 289
1873223N11332 1873 12 NA NA NOT_NAMED 1873-08-16 06:00:00 TS 18.2000 -48.6000 spur-merge 1505 1501 _____________O -1 18.2000 -48.6000 HU 75 9 294
1873223N11332 1873 12 NA NA NOT_NAMED 1873-08-16 09:00:00 TS 18.3922 -48.9851 spur-merge 1509 1505 _____________P -1 18.3922 -48.9851 HU 75 9 298
1873223N11332 1873 12 NA NA NOT_NAMED 1873-08-16 12:00:00 TS 18.6000 -49.4000 spur-merge 1514 1498 _____________O -1 18.6000 -49.4000 HU 75 10 295
1873223N11332 1873 12 NA NA NOT_NAMED 1873-08-16 15:00:00 TS 18.8075 -49.9275 spur-merge 1498 1461 _____________P -1 18.8075 -49.9275 HU 75 11 291
1873223N11332 1873 12 NA NA NOT_NAMED 1873-08-16 18:00:00 TS 19.0000 -50.5000 spur-merge 1461 1427 _____________O -1 19.0000 -50.5000 HU 75 11 288
1873223N11332 1873 12 NA NA NOT_NAMED 1873-08-16 21:00:00 TS 19.1575 -51.0651 spur-merge 1426 1394 _____________P -1 19.1575 -51.0651 HU 75 11 286
1873223N11332 1873 12 NA NA NOT_NAMED 1873-08-17 00:00:00 TS 19.3000 -51.6000 spur-merge 1394 1371 _____________O -1 19.3000 -51.6000 HU 75 10 287
1873223N11332 1873 12 NA NA NOT_NAMED 1873-08-17 03:00:00 TS 19.4423 -52.0652 spur-merge 1363 1349 _____________P -1 19.4423 -52.0652 HU 75 9 289
1873223N11332 1873 12 NA NA NOT_NAMED 1873-08-17 06:00:00 TS 19.6000 -52.5000 spur-merge 1350 1337 _____________O -1 19.6000 -52.5000 HU 75 9 293
1873223N11332 1873 12 NA NA NOT_NAMED 1873-08-17 09:00:00 TS 19.7999 -52.9575 spur-merge 1331 1293 _____________P -1 19.7999 -52.9575 HU 75 9 295
1873223N11332 1873 12 NA NA NOT_NAMED 1873-08-17 12:00:00 TS 20.0000 -53.4000 spur-merge 1293 1252 _____________O -1 20.0000 -53.4000 HU 75 9 294
1873223N11332 1873 12 NA NA NOT_NAMED 1873-08-17 15:00:00 TS 20.1497 -53.7853 spur-merge 1252 1214 _____________P -1 20.1497 -53.7853 HU 75 8 292
1873223N11332 1873 12 NA NA NOT_NAMED 1873-08-17 18:00:00 TS 20.3000 -54.2000 spur-merge 1214 1166 _____________O -1 20.3000 -54.2000 HU 75 10 292
1873223N11332 1873 12 NA NA NOT_NAMED 1873-08-17 21:00:00 TS 20.5000 -54.7274 spur-merge 1166 1109 _____________P -1 20.5000 -54.7274 HU 75 11 291
1873223N11332 1873 12 NA NA NOT_NAMED 1873-08-18 00:00:00 TS 20.7000 -55.3000 spur-merge 1109 1060 _____________O -1 20.7000 -55.3000 HU 75 11 289
1873223N11332 1873 12 NA NA NOT_NAMED 1873-08-18 03:00:00 TS 20.8574 -55.8577 spur-merge 1053 1005 _____________P -1 20.8574 -55.8577 HU 75 11 286
1873223N11332 1873 12 NA NA NOT_NAMED 1873-08-18 06:00:00 TS 21.0000 -56.4000 spur-merge 1005 959 _____________O -1 21.0000 -56.4000 HU 75 10 286
1873223N11332 1873 12 NA NA NOT_NAMED 1873-08-18 09:00:00 TS 21.1422 -56.9002 spur-merge 959 916 _____________P -1 21.1422 -56.9002 HU 75 10 288
1873223N11332 1873 12 NA NA NOT_NAMED 1873-08-18 12:00:00 TS 21.3000 -57.4000 spur-merge 916 876 _____________O -1 21.3000 -57.4000 HU 75 10 290
1873223N11332 1873 12 NA NA NOT_NAMED 1873-08-18 15:00:00 TS 21.4999 -57.9425 spur-merge 876 828 _____________P -1 21.4999 -57.9425 HU 77 11 291
1873223N11332 1873 12 NA NA NOT_NAMED 1873-08-18 18:00:00 TS 21.7000 -58.5000 spur-merge 828 786 _____________O -1 21.7000 -58.5000 HU 80 11 289
1873223N11332 1873 12 NA NA NOT_NAMED 1873-08-18 21:00:00 TS 21.8575 -59.0651 spur-merge 783 744 _____________P -1 21.8628 -59.0524 HU 80 11 286
1873223N11332 1873 12 NA NA NOT_NAMED 1873-08-19 00:00:00 TS 22.0000 -59.6000 spur-merge 744 _____________O -1 22.0000 -59.6000 HU 80 10 286

About IBTrACS Database

This database is a web-friendly format of International Best Track Archive for Climate Stewardship (IBTrACS), a global best track data archive curated by NOAA dating back to 1842.

Updated: 2021-10-08